Rio Novo, Brazil
Current Conditions -  °F | °C
As of 7:00 PM on Monday 20 Oct 2014 (Local Time) from SBJF Reporting Station
Haze Haze  
Wind Chill: 66°   Ceiling: 900
Heat Index: 66°   Visibility: 3mi
Dew Point: 64°   Wind: 16mph
Humidity: 94%   Direction: 210°SSW
Pressure: 30.06"   Gusts: NA
Location:  21.46°S, 43.13°W
Report Text: SBJF 202200Z 21014KT 5000 BR FEW005 BKN009 BKN100 19/18 Q1018
Loading
Personal Weather Stations






























Interactive Weather Map
Tropical Storm Tracking
New forecast layout! Learn more

10-Day Weather Forecast

Advertisements
Track Severe Weather on mobile